Time;durP1;ratioP1;P1;durP2;ratioP2;P2;SDS_P1;SDS_P2;PMS_P1;PMS_P2;Temp;Humidity;BMP_temperature;BMP_pressure;BME280_temperature;BME280_humidity;BME280_pressure;Samples;Min_cycle;Max_cycle;Signal;HPM_P1;HPM_P2
2023/04/09 00:01:46;;;;;;;76.70;48.53;;;8.30;99.90;;;;;;5091940;28;20548;-57
2023/04/09 00:04:11;;;;;;;69.13;45.63;;;8.30;99.90;;;;;;5091313;28;20479;-56
2023/04/09 00:06:37;;;;;;;79.65;48.03;;;8.30;99.90;;;;;;5111631;28;20054;-55
2023/04/09 00:09:03;;;;;;;77.50;46.63;;;8.30;99.90;;;;;;5109174;28;20401;-56
2023/04/09 00:11:28;;;;;;;76.80;47.40;;;8.30;99.90;;;;;;5108400;28;20039;-53
2023/04/09 00:13:54;;;;;;;70.17;47.30;;;8.30;99.90;;;;;;5101536;27;20447;-56
2023/04/09 00:16:19;;;;;;;70.27;46.53;;;8.30;99.90;;;;;;5107753;28;20039;-57
2023/04/09 00:18:45;;;;;;;72.97;46.77;;;8.20;99.90;;;;;;5109715;28;20493;-57
2023/04/09 00:21:10;;;;;;;69.00;43.37;;;8.20;99.90;;;;;;5095807;28;20079;-54
2023/04/09 00:23:36;;;;;;;71.93;46.87;;;8.20;99.90;;;;;;5090336;28;20071;-57
2023/04/09 00:26:02;;;;;;;69.83;45.43;;;8.20;99.90;;;;;;5090385;28;20038;-54
2023/04/09 00:28:27;;;;;;;66.25;43.60;;;8.20;99.90;;;;;;5089440;28;20040;-56
2023/04/09 00:30:53;;;;;;;67.73;43.07;;;8.20;99.90;;;;;;5090727;28;20497;-54
2023/04/09 00:33:18;;;;;;;69.73;43.33;;;8.20;99.90;;;;;;5090176;28;20077;-55
2023/04/09 00:35:44;;;;;;;65.20;41.43;;;8.20;99.90;;;;;;5098417;28;20039;-53
2023/04/09 00:38:09;;;;;;;62.93;39.10;;;8.20;99.90;;;;;;5109135;28;20552;-56
2023/04/09 00:40:35;;;;;;;63.93;40.87;;;8.30;99.90;;;;;;5100950;28;20040;-55
2023/04/09 00:43:01;;;;;;;64.40;40.30;;;8.20;99.90;;;;;;5090626;28;20342;-54
2023/04/09 00:45:27;;;;;;;61.70;40.88;;;8.20;99.90;;;;;;5090604;28;20083;-53
2023/04/09 00:47:52;;;;;;;66.88;41.75;;;8.20;99.90;;;;;;5092426;28;20039;-56
2023/04/09 00:50:18;;;;;;;62.27;39.40;;;8.20;99.90;;;;;;5109310;28;20378;-55
2023/04/09 00:52:44;;;;;;;68.05;39.00;;;8.20;99.90;;;;;;5109697;28;20388;-55
2023/04/09 00:55:12;;;;;;;69.03;38.83;;;8.20;99.90;;;;;;5109295;28;20162;-52
2023/04/09 00:57:37;;;;;;;63.10;41.05;;;8.20;99.90;;;;;;5089140;28;20077;-57
2023/04/09 01:00:06;;;;;;;63.90;40.73;;;8.20;99.90;;;;;;5089694;28;20114;-55
2023/04/09 01:02:31;;;;;;;66.70;40.67;;;8.30;99.90;;;;;;5109462;28;20408;-56
2023/04/09 01:04:57;;;;;;;65.07;39.58;;;8.30;99.90;;;;;;5089245;28;20051;-55
2023/04/09 01:07:47;;;;;;;68.82;41.20;;;8.30;99.90;;;;;;5090698;28;20071;-56
2023/04/09 01:10:27;;;;;;;61.65;40.33;;;8.30;99.90;;;;;;5090126;28;20097;-56
2023/04/09 01:13:06;;;;;;;62.72;38.05;;;8.30;99.90;;;;;;5109761;28;20023;-57
2023/04/09 01:15:49;;;;;;;64.55;40.50;;;8.30;99.90;;;;;;5108973;28;20035;-57
2023/04/09 01:18:27;;;;;;;63.03;41.25;;;8.30;99.90;;;;;;5108451;28;20123;-57
2023/04/09 01:21:01;;;;;;;67.75;41.45;;;8.30;99.90;;;;;;5109330;28;20036;-54
2023/04/09 01:24:00;;;;;;;58.53;38.60;;;8.30;99.90;;;;;;5108721;28;20063;-54
2023/04/09 01:26:45;;;;;;;64.07;41.00;;;8.30;99.90;;;;;;5098903;28;20035;-54
2023/04/09 01:29:12;;;;;;;66.55;40.30;;;8.30;99.90;;;;;;5099368;28;20032;-56
2023/04/09 01:31:38;;;;;;;70.90;42.58;;;8.30;99.90;;;;;;5089843;28;20063;-54
2023/04/09 01:34:07;;;;;;;60.28;39.90;;;8.30;99.90;;;;;;5090706;28;20131;-55
2023/04/09 01:36:34;;;;;;;63.83;38.08;;;8.30;99.90;;;;;;5096176;28;20051;-56
2023/04/09 01:39:01;;;;;;;58.08;38.78;;;8.30;99.90;;;;;;5108510;28;20057;-56
2023/04/09 01:41:29;;;;;;;60.55;40.17;;;8.30;99.90;;;;;;5109111;28;20057;-56
2023/04/09 01:44:00;;;;;;;58.00;38.53;;;8.20;99.90;;;;;;5104265;28;20035;-57
2023/04/09 01:46:26;;;;;;;59.67;38.47;;;8.30;99.90;;;;;;5093850;28;20534;-57
2023/04/09 01:48:53;;;;;;;61.85;40.17;;;8.30;99.90;;;;;;5104079;28;20032;-53
2023/04/09 01:51:19;;;;;;;63.53;40.88;;;8.30;99.90;;;;;;5093929;28;20314;-55
2023/04/09 01:53:44;;;;;;;59.55;40.53;;;8.30;99.90;;;;;;5109423;28;20032;-55
2023/04/09 01:56:10;;;;;;;65.90;41.47;;;8.30;99.90;;;;;;5108039;28;20040;-56
2023/04/09 01:58:36;;;;;;;59.78;39.42;;;8.30;99.90;;;;;;5088473;28;20274;-55
2023/04/09 02:01:08;;;;;;;57.20;38.17;;;8.30;99.90;;;;;;5090073;28;20036;-56
2023/04/09 02:03:39;;;;;;;59.45;38.22;;;8.30;99.90;;;;;;5108975;28;20101;-56
2023/04/09 02:06:23;;;;;;;58.95;37.17;;;8.30;99.90;;;;;;5089537;28;20051;-56
2023/04/09 02:08:51;;;;;;;63.60;39.67;;;8.30;99.90;;;;;;5107954;28;20101;-55
2023/04/09 02:11:20;;;;;;;64.13;41.17;;;8.30;99.90;;;;;;5107800;28;20046;-55
2023/04/09 02:13:48;;;;;;;66.40;41.55;;;8.30;99.90;;;;;;5107994;28;20072;-54
2023/04/09 02:16:15;;;;;;;60.00;39.40;;;8.30;99.90;;;;;;5107388;28;20039;-56
2023/04/09 02:18:41;;;;;;;65.72;42.22;;;8.30;99.90;;;;;;5087858;28;20509;-56
2023/04/09 02:21:07;;;;;;;69.03;40.85;;;8.30;99.90;;;;;;5090265;28;20040;-55
2023/04/09 02:23:32;;;;;;;62.97;41.10;;;8.30;99.90;;;;;;5089017;28;20035;-56
2023/04/09 02:25:58;;;;;;;66.80;40.37;;;8.30;99.90;;;;;;5089224;28;20040;-57
2023/04/09 02:28:24;;;;;;;60.08;38.25;;;8.30;99.90;;;;;;5104488;28;20364;-57
2023/04/09 02:30:49;;;;;;;60.92;37.60;;;8.20;99.90;;;;;;5107456;28;20428;-56
2023/04/09 02:33:15;;;;;;;63.20;37.50;;;8.20;99.90;;;;;;5108655;28;20043;-55
2023/04/09 02:35:41;;;;;;;61.53;38.25;;;8.20;99.90;;;;;;5106539;28;20031;-55
2023/04/09 02:38:12;;;;;;;69.40;37.70;;;8.10;99.90;;;;;;5106767;28;20085;-55
2023/04/09 02:40:41;;;;;;;61.00;38.17;;;8.10;99.90;;;;;;5108322;28;20281;-57
2023/04/09 02:43:07;;;;;;;61.08;38.85;;;8.20;99.90;;;;;;5111937;28;20370;-56
2023/04/09 02:45:33;;;;;;;59.08;37.83;;;8.20;99.90;;;;;;5112024;28;20104;-57
2023/04/09 02:47:58;;;;;;;64.17;37.60;;;8.20;99.90;;;;;;5110134;28;20044;-56
2023/04/09 02:50:24;;;;;;;60.60;37.80;;;8.20;99.90;;;;;;5112281;28;20031;-58
2023/04/09 02:52:49;;;;;;;65.00;37.37;;;8.20;99.90;;;;;;5112085;28;20067;-57
2023/04/09 02:55:17;;;;;;;58.97;38.00;;;8.10;99.90;;;;;;5112599;28;20489;-56
2023/04/09 02:57:43;;;;;;;66.43;40.08;;;8.20;99.90;;;;;;5103102;28;20621;-56
2023/04/09 03:00:10;;;;;;;62.53;38.33;;;8.10;99.90;;;;;;5092136;28;20043;-56
2023/04/09 03:02:35;;;;;;;63.45;40.20;;;8.10;99.90;;;;;;5092547;28;20047;-54
2023/04/09 03:05:01;;;;;;;64.37;38.50;;;8.10;99.90;;;;;;5092068;28;20039;-56
2023/04/09 03:07:26;;;;;;;68.25;39.72;;;8.10;99.90;;;;;;5091872;28;20032;-54
2023/04/09 03:09:52;;;;;;;61.73;38.47;;;8.20;99.90;;;;;;5091558;28;20428;-56
2023/04/09 03:12:18;;;;;;;61.37;40.10;;;8.10;99.90;;;;;;5091861;28;20839;-57
2023/04/09 03:14:43;;;;;;;61.63;39.50;;;8.00;99.90;;;;;;5092009;28;20032;-55
2023/04/09 03:17:09;;;;;;;60.93;38.93;;;8.00;99.90;;;;;;5099360;28;20105;-55
2023/04/09 03:19:35;;;;;;;66.63;40.10;;;8.00;99.90;;;;;;5090959;28;20043;-57
2023/04/09 03:22:00;;;;;;;59.83;39.47;;;8.00;99.90;;;;;;5096189;28;20027;-57
2023/04/09 03:24:26;;;;;;;66.53;42.30;;;8.00;99.90;;;;;;5112280;28;20109;-56
2023/04/09 03:26:51;;;;;;;63.37;38.93;;;8.00;99.90;;;;;;5111022;28;20821;-56
2023/04/09 03:29:17;;;;;;;67.53;41.47;;;8.00;99.90;;;;;;5094009;28;20067;-54
2023/04/09 03:31:42;;;;;;;61.83;40.00;;;8.00;99.90;;;;;;5102224;28;20088;-53
2023/04/09 03:34:08;;;;;;;62.80;40.37;;;8.00;99.90;;;;;;5094646;28;20047;-56
2023/04/09 03:36:34;;;;;;;63.53;41.67;;;8.00;99.90;;;;;;5091715;28;20043;-53
2023/04/09 03:38:59;;;;;;;61.15;40.30;;;8.00;99.90;;;;;;5090401;28;20055;-53
2023/04/09 03:41:26;;;;;;;55.63;38.73;;;8.00;99.90;;;;;;5089771;28;20047;-53
2023/04/09 03:43:52;;;;;;;59.22;37.28;;;8.00;99.90;;;;;;5091606;28;20293;-56
2023/04/09 03:46:18;;;;;;;63.85;38.75;;;7.90;99.90;;;;;;5091782;28;20040;-56
2023/04/09 03:48:44;;;;;;;61.30;38.58;;;7.90;99.90;;;;;;5099366;28;20032;-56
2023/04/09 03:51:11;;;;;;;;;;;7.90;99.90;;;;;;5111222;28;20079;-54
2023/04/09 03:53:37;;;;;;;64.33;39.63;;;7.90;99.90;;;;;;5109634;28;19981;-56
2023/04/09 03:56:02;;;;;;;57.23;39.63;;;7.90;99.90;;;;;;5111357;28;20867;-56
2023/04/09 03:58:28;;;;;;;62.60;39.90;;;7.90;99.90;;;;;;5104476;28;20064;-56
2023/04/09 04:00:53;;;;;;;63.27;40.60;;;7.80;99.90;;;;;;5091002;28;20040;-55
2023/04/09 04:03:19;;;;;;;63.83;37.78;;;7.90;99.90;;;;;;5090932;28;20516;-56
2023/04/09 04:05:45;;;;;;;60.35;39.92;;;7.90;99.90;;;;;;5098415;28;20047;-57
2023/04/09 04:08:10;;;;;;;60.93;39.20;;;7.80;99.90;;;;;;5109467;28;20066;-55
2023/04/09 04:10:36;;;;;;;66.17;38.70;;;7.80;99.90;;;;;;5110558;28;20027;-57
2023/04/09 04:13:02;;;;;;;57.03;37.40;;;7.80;99.90;;;;;;5110331;28;20044;-56
2023/04/09 04:15:27;;;;;;;57.93;37.70;;;7.80;99.90;;;;;;5109696;28;20417;-54
2023/04/09 04:17:54;;;;;;;58.92;37.65;;;7.80;99.90;;;;;;5110106;28;20322;-55
2023/04/09 04:20:19;;;;;;;61.13;37.65;;;7.80;99.90;;;;;;5110015;28;20485;-56
2023/04/09 04:22:45;;;;;;;54.95;36.92;;;7.80;99.90;;;;;;5110547;28;20089;-55
2023/04/09 04:25:11;;;;;;;57.67;36.57;;;7.80;99.90;;;;;;5107664;28;20496;-55
2023/04/09 04:27:40;;;;;;;58.83;36.42;;;7.80;99.90;;;;;;5109823;28;20567;-56
2023/04/09 04:30:06;;;;;;;57.75;39.08;;;7.80;99.90;;;;;;5107015;28;20084;-57
2023/04/09 04:32:31;;;;;;;61.90;37.95;;;7.90;99.90;;;;;;5090522;28;20042;-55
2023/04/09 04:34:57;;;;;;;58.37;39.23;;;7.80;99.90;;;;;;5102452;28;20028;-56
2023/04/09 04:37:23;;;;;;;59.53;36.93;;;7.80;99.90;;;;;;5109856;28;20040;-57
2023/04/09 04:39:48;;;;;;;60.30;37.73;;;7.80;99.90;;;;;;5107645;28;20067;-56
2023/04/09 04:42:14;;;;;;;51.07;34.67;;;7.80;99.90;;;;;;5108566;28;20284;-55
2023/04/09 04:44:39;;;;;;;52.28;33.75;;;7.80;99.90;;;;;;5091338;28;20524;-53
2023/04/09 04:47:05;;;;;;;52.43;33.60;;;7.70;99.90;;;;;;5090474;28;20032;-55
2023/04/09 04:49:30;;;;;;;50.43;34.67;;;7.70;99.90;;;;;;5088985;28;20337;-57
2023/04/09 04:51:56;;;;;;;53.20;35.00;;;7.70;99.90;;;;;;5095292;28;20134;-56
2023/04/09 04:54:22;;;;;;;50.83;32.93;;;7.70;99.90;;;;;;5103328;28;20564;-57
2023/04/09 04:56:47;;;;;;;51.37;34.33;;;7.70;99.90;;;;;;5095599;28;20035;-56
2023/04/09 04:59:13;;;;;;;59.83;35.80;;;7.70;99.90;;;;;;5108398;28;20111;-55
2023/04/09 05:01:38;;;;;;;50.70;34.80;;;7.70;99.90;;;;;;5109987;28;20043;-54
2023/04/09 05:04:04;;;;;;;56.83;36.23;;;7.70;99.90;;;;;;5106947;28;20088;-54
2023/04/09 05:06:30;;;;;;;51.50;33.88;;;7.70;99.90;;;;;;5100144;28;20088;-56
2023/04/09 05:08:57;;;;;;;62.72;36.53;;;7.70;99.90;;;;;;5108193;28;20419;-55
2023/04/09 05:11:24;;;;;;;55.30;36.47;;;7.70;99.90;;;;;;5107052;28;20318;-56
2023/04/09 05:13:50;;;;;;;59.10;36.22;;;7.80;99.90;;;;;;5109924;28;20035;-56
2023/04/09 05:16:19;;;;;;;57.20;37.60;;;7.80;99.90;;;;;;5107182;28;20036;-57
2023/04/09 05:18:45;;;;;;;56.50;37.08;;;7.70;99.90;;;;;;5088421;28;20488;-57
2023/04/09 05:21:11;;;;;;;59.58;37.80;;;7.70;99.90;;;;;;5108996;28;20046;-56
2023/04/09 05:23:37;;;;;;;61.08;36.70;;;7.80;99.90;;;;;;5109797;28;20044;-56
2023/04/09 05:26:03;;;;;;;62.17;38.65;;;7.80;99.90;;;;;;5092894;28;20032;-55
2023/04/09 05:28:28;;;;;;;49.63;35.17;;;7.70;99.90;;;;;;5089174;28;20036;-53
2023/04/09 05:30:54;;;;;;;54.27;36.23;;;7.70;99.90;;;;;;5090136;28;20144;-55
2023/04/09 05:33:19;;;;;;;60.13;38.23;;;7.70;99.90;;;;;;5098758;28;20123;-57
2023/04/09 05:35:45;;;;;;;54.97;36.53;;;7.70;99.90;;;;;;5093094;28;20180;-56
2023/04/09 05:38:12;;;;;;;57.80;37.23;;;7.80;99.90;;;;;;5092147;28;20074;-56
2023/04/09 05:40:38;;;;;;;58.58;36.30;;;7.70;99.90;;;;;;5088911;28;20726;-55
2023/04/09 05:43:04;;;;;;;55.10;37.97;;;7.80;99.90;;;;;;5099520;28;20063;-55
2023/04/09 05:45:30;;;;;;;56.67;35.55;;;7.80;99.90;;;;;;5099481;28;20094;-57
2023/04/09 05:47:55;;;;;;;54.90;37.30;;;7.80;99.90;;;;;;5090037;28;20070;-57
2023/04/09 05:50:21;;;;;;;58.92;38.35;;;7.80;99.90;;;;;;5092926;28;20461;-57
2023/04/09 05:52:47;;;;;;;70.78;41.03;;;7.80;99.90;;;;;;5098000;28;20131;-56
2023/04/09 05:55:13;;;;;;;66.67;41.47;;;7.90;99.90;;;;;;5108189;28;20080;-55
2023/04/09 05:57:38;;;;;;;60.80;39.30;;;8.00;99.90;;;;;;5100597;28;20701;-56
2023/04/09 06:00:05;;;;;;;64.18;38.35;;;8.10;99.90;;;;;;5093193;28;20028;-56
2023/04/09 06:02:30;;;;;;;64.47;40.55;;;8.10;99.90;;;;;;5099259;28;20040;-57
2023/04/09 06:04:56;;;;;;;66.47;39.27;;;8.10;99.90;;;;;;5096064;28;20130;-57
2023/04/09 06:07:21;;;;;;;63.13;38.87;;;8.20;99.90;;;;;;5089273;28;20435;-55
2023/04/09 06:09:47;;;;;;;62.25;37.08;;;8.20;99.90;;;;;;5087650;28;20032;-56
2023/04/09 06:12:13;;;;;;;63.85;40.75;;;8.20;99.90;;;;;;5095839;28;20078;-56
2023/04/09 06:14:39;;;;;;;56.20;36.07;;;8.20;99.90;;;;;;5090251;28;20055;-53
2023/04/09 06:17:04;;;;;;;63.25;36.95;;;8.20;99.90;;;;;;5107336;28;20078;-50
2023/04/09 06:19:30;;;;;;;64.03;37.97;;;8.30;99.90;;;;;;5109607;28;20489;-54
2023/04/09 06:21:56;;;;;;;56.22;35.17;;;8.30;99.90;;;;;;5099849;28;20047;-55
2023/04/09 06:24:21;;;;;;;60.95;37.47;;;8.30;99.90;;;;;;5092419;28;20119;-54
2023/04/09 06:26:47;;;;;;;62.17;40.85;;;8.30;99.90;;;;;;5095793;28;20525;-57
2023/04/09 06:29:13;;;;;;;64.07;40.63;;;8.30;99.90;;;;;;5091661;28;20036;-55
2023/04/09 06:31:38;;;;;;;61.63;39.72;;;8.30;99.90;;;;;;5103239;28;20508;-56
2023/04/09 06:34:04;;;;;;;61.53;41.37;;;8.30;99.90;;;;;;5111652;27;20031;-56
2023/04/09 06:36:31;;;;;;;63.00;39.97;;;8.30;99.90;;;;;;5102604;28;20281;-54
2023/04/09 06:38:57;;;;;;;65.68;40.30;;;8.30;99.90;;;;;;5091075;28;20044;-52
2023/04/09 06:41:24;;;;;;;61.03;38.92;;;8.30;99.90;;;;;;5096089;27;20050;-55
2023/04/09 06:43:49;;;;;;;60.97;39.83;;;8.30;99.90;;;;;;5103341;27;20036;-57
2023/04/09 06:46:18;;;;;;;67.40;38.42;;;8.40;99.90;;;;;;5103383;28;20056;-57
2023/04/09 06:48:45;;;;;;;61.58;39.13;;;8.40;99.90;;;;;;5106548;28;20040;-57
2023/04/09 06:51:10;;;;;;;;;;;8.40;99.90;;;;;;5107000;28;20039;-55
2023/04/09 06:53:39;;;;;;;65.93;38.13;;;8.40;99.90;;;;;;5104126;28;19923;-57
2023/04/09 06:56:05;;;;;;;68.38;42.10;;;8.40;99.90;;;;;;5108044;28;20093;-55
2023/04/09 06:58:31;;;;;;;65.97;41.33;;;8.40;99.90;;;;;;5102026;28;20054;-57
2023/04/09 07:00:57;;;;;;;65.70;40.73;;;8.40;99.90;;;;;;5104098;28;20123;-57
2023/04/09 07:03:22;;;;;;;64.95;38.58;;;8.50;99.90;;;;;;5103560;27;20416;-56
2023/04/09 07:05:48;;;;;;;68.47;41.10;;;8.60;99.90;;;;;;5104155;28;20050;-56
2023/04/09 07:08:14;;;;;;;65.82;39.55;;;8.60;99.90;;;;;;5111247;27;20277;-56
2023/04/09 07:10:40;;;;;;;58.25;38.90;;;8.60;99.90;;;;;;5112450;28;20042;-57
2023/04/09 07:13:06;;;;;;;62.28;40.38;;;8.60;99.90;;;;;;5111625;28;20512;-54
2023/04/09 07:15:31;;;;;;;66.38;43.30;;;8.60;99.90;;;;;;5112274;28;20043;-56
2023/04/09 07:17:57;;;;;;;60.72;40.03;;;8.60;99.90;;;;;;5109478;28;20096;-56
2023/04/09 07:20:23;;;;;;;59.65;39.88;;;8.70;99.90;;;;;;5110318;28;20071;-56
2023/04/09 07:22:48;;;;;;;66.07;40.30;;;8.70;99.90;;;;;;5106416;28;20043;-55
2023/04/09 07:25:17;;;;;;;63.73;40.57;;;8.80;99.90;;;;;;5112311;28;20102;-54
2023/04/09 07:27:43;;;;;;;67.55;43.60;;;8.70;99.90;;;;;;5096430;28;20297;-54
2023/04/09 07:30:09;;;;;;;62.63;42.08;;;8.80;99.90;;;;;;5110191;28;20031;-55
2023/04/09 07:32:35;;;;;;;69.10;43.35;;;8.80;99.90;;;;;;5110422;28;20071;-54
2023/04/09 07:35:03;;;;;;;70.93;44.38;;;8.80;99.90;;;;;;5111263;28;20044;-56
2023/04/09 07:37:29;;;;;;;66.85;41.90;;;8.80;99.90;;;;;;5109006;28;20138;-53
2023/04/09 07:39:55;;;;;;;66.70;40.80;;;8.80;99.90;;;;;;5112048;28;20119;-52
2023/04/09 07:42:21;;;;;;;66.63;44.00;;;8.90;99.90;;;;;;5109262;28;20058;-56
2023/04/09 07:44:47;;;;;;;65.18;44.13;;;9.00;99.90;;;;;;5105130;28;20036;-55
2023/04/09 07:47:13;;;;;;;62.33;41.25;;;9.00;99.90;;;;;;5109954;27;20074;-55
2023/04/09 07:49:39;;;;;;;59.20;40.85;;;9.10;99.90;;;;;;5104414;28;20063;-57
2023/04/09 07:52:05;;;;;;;57.45;39.65;;;9.20;99.90;;;;;;5102796;28;20032;-54
2023/04/09 07:54:31;;;;;;;61.72;41.42;;;9.20;99.90;;;;;;5111389;28;20039;-57
2023/04/09 07:56:57;;;;;;;60.70;39.38;;;9.30;99.90;;;;;;5105108;28;20050;-54
2023/04/09 07:59:23;;;;;;;58.35;38.65;;;9.40;99.90;;;;;;5096038;28;20081;-57
2023/04/09 08:01:49;;;;;;;64.15;41.30;;;9.40;99.90;;;;;;5107400;28;20512;-57
2023/04/09 08:04:15;;;;;;;58.83;38.85;;;9.40;99.90;;;;;;5106928;28;20562;-56
2023/04/09 08:06:40;;;;;;;63.50;40.43;;;9.50;99.90;;;;;;5105747;28;20397;-56
2023/04/09 08:09:06;;;;;;;61.38;41.88;;;9.50;99.90;;;;;;5106754;28;20794;-55
2023/04/09 08:11:32;;;;;;;63.95;41.15;;;9.60;99.90;;;;;;5110635;28;20035;-56
2023/04/09 08:14:00;;;;;;;64.80;39.55;;;9.60;99.90;;;;;;5108202;28;20043;-57
2023/04/09 08:16:26;;;;;;;59.80;40.50;;;9.70;99.90;;;;;;5097020;28;20044;-57
2023/04/09 08:18:52;;;;;;;61.15;41.25;;;9.70;99.90;;;;;;5105950;27;20047;-57
2023/04/09 08:21:18;;;;;;;65.13;42.58;;;9.90;99.90;;;;;;5109325;28;20070;-54
2023/04/09 08:23:44;;;;;;;51.25;36.53;;;10.00;99.90;;;;;;5107682;28;20035;-53
2023/04/09 08:26:10;;;;;;;58.75;38.05;;;10.10;99.90;;;;;;5106200;28;20504;-55
2023/04/09 08:28:36;;;;;;;54.50;38.25;;;10.20;99.90;;;;;;5103409;28;20078;-55
2023/04/09 08:31:01;;;;;;;60.05;36.58;;;10.30;99.90;;;;;;5093639;28;20083;-54
2023/04/09 08:33:27;;;;;;;59.30;37.63;;;10.40;99.90;;;;;;5101781;28;20539;-51
2023/04/09 08:35:53;;;;;;;53.05;36.03;;;10.40;99.90;;;;;;5102883;28;20042;-57
2023/04/09 08:38:18;;;;;;;56.22;39.28;;;10.50;99.90;;;;;;5104704;28;20481;-57
2023/04/09 08:40:44;;;;;;;54.83;38.33;;;10.50;99.90;;;;;;5095377;28;20089;-56
2023/04/09 08:43:15;;;;;;;58.00;38.38;;;10.60;99.90;;;;;;5090723;28;20320;-54
2023/04/09 08:45:41;;;;;;;52.85;38.40;;;10.60;99.90;;;;;;5098416;28;20036;-54
2023/04/09 08:48:11;;;;;;;;;;;10.70;99.90;;;;;;5106505;28;20031;-56
2023/04/09 08:50:37;;;;;;;56.70;36.92;;;10.70;99.90;;;;;;5105906;28;19931;-56
2023/04/09 08:53:04;;;;;;;59.83;39.38;;;10.80;99.90;;;;;;5106794;28;20039;-57
2023/04/09 08:55:30;;;;;;;56.50;38.95;;;10.80;99.90;;;;;;5102095;28;20043;-55
2023/04/09 08:57:57;;;;;;;57.40;39.83;;;10.90;99.90;;;;;;5091830;28;20142;-57
2023/04/09 09:00:22;;;;;;;;;;;11.00;99.90;;;;;;5093732;28;20043;-52
2023/04/09 09:03:10;;;;;;;51.05;34.92;;;11.00;99.90;;;;;;5093273;28;20391;-52
2023/04/09 09:05:44;;;;;;;56.22;37.58;;;11.00;99.90;;;;;;5101296;28;20530;-52
2023/04/09 09:08:12;;;;;;;65.43;38.65;;;11.00;99.90;;;;;;5096887;28;20385;-54
2023/04/09 09:10:45;;;;;;;85.70;39.45;;;11.20;99.90;;;;;;5090741;28;20044;-51
2023/04/09 09:13:25;;;;;;;69.47;37.35;;;11.30;99.90;;;;;;5094582;28;20047;-52
2023/04/09 09:15:55;;;;;;;56.03;37.80;;;11.40;99.90;;;;;;5092048;28;20476;-53
2023/04/09 09:18:42;;;;;;;52.72;35.70;;;11.40;99.90;;;;;;5092900;28;20115;-56
2023/04/09 09:21:16;;;;;;;52.70;34.78;;;11.50;99.90;;;;;;5093682;28;20213;-53
2023/04/09 09:23:42;;;;;;;55.33;35.42;;;11.50;99.90;;;;;;5105422;28;20046;-54
2023/04/09 09:26:15;;;;;;;51.97;34.25;;;11.60;99.90;;;;;;5102659;28;20044;-52
2023/04/09 09:28:42;;;;;;;55.60;35.95;;;11.70;99.90;;;;;;5095835;28;20032;-51
2023/04/09 09:31:08;;;;;;;48.65;33.20;;;11.80;99.90;;;;;;5106382;28;20036;-52
2023/04/09 09:33:35;;;;;;;47.05;32.92;;;11.90;99.90;;;;;;5105975;28;20500;-52
2023/04/09 09:36:02;;;;;;;48.80;32.45;;;11.90;99.90;;;;;;5103613;28;20431;-54
2023/04/09 09:38:29;;;;;;;49.05;33.20;;;11.90;99.90;;;;;;5102357;28;20408;-51
2023/04/09 09:40:54;;;;;;;50.90;35.60;;;11.90;99.90;;;;;;5093327;28;20470;-52
2023/04/09 09:43:20;;;;;;;52.22;34.88;;;12.00;99.90;;;;;;5104915;28;20162;-53
2023/04/09 09:45:47;;;;;;;79.38;35.33;;;12.10;99.90;;;;;;5096229;28;20409;-52
2023/04/09 09:48:13;;;;;;;47.08;31.88;;;12.20;99.90;;;;;;5104810;28;20031;-54
2023/04/09 09:50:43;;;;;;;48.78;33.05;;;12.20;99.90;;;;;;5105060;28;20039;-57
2023/04/09 09:53:10;;;;;;;45.65;31.70;;;12.30;99.90;;;;;;5110209;28;20067;-51
2023/04/09 09:55:42;;;;;;;39.58;28.35;;;12.30;99.90;;;;;;5094722;28;20036;-54
2023/04/09 09:58:10;;;;;;;39.72;27.38;;;12.40;99.90;;;;;;5092369;28;20047;-52
2023/04/09 10:00:39;;;;;;;44.15;27.92;;;12.40;99.90;;;;;;5093365;28;20071;-52
2023/04/09 10:03:19;;;;;;;39.70;27.88;;;12.50;99.90;;;;;;5094586;28;20075;-53
2023/04/09 10:05:47;;;;;;;39.42;29.42;;;12.50;99.90;;;;;;5108766;28;20506;-56
2023/04/09 10:08:13;;;;;;;32.20;24.38;;;12.50;99.90;;;;;;5108830;28;20055;-52
2023/04/09 10:10:41;;;;;;;36.95;25.48;;;12.60;99.90;;;;;;5098010;28;20059;-55
2023/04/09 10:13:12;;;;;;;34.55;24.48;;;12.60;99.90;;;;;;5100353;28;20067;-52
2023/04/09 10:15:39;;;;;;;37.45;27.33;;;12.70;99.90;;;;;;5092559;28;20123;-52
2023/04/09 10:18:04;;;;;;;;;;;12.70;99.90;;;;;;5095277;28;20043;-55
2023/04/09 10:20:40;;;;;;;37.72;26.92;;;12.80;99.90;;;;;;5109733;28;19976;-55
2023/04/09 10:23:14;;;;;;;34.58;23.88;;;12.80;99.90;;;;;;5101831;28;20496;-52
2023/04/09 10:25:41;;;;;;;34.03;24.23;;;12.90;99.90;;;;;;5108623;28;20211;-56
2023/04/09 10:28:16;;;;;;;32.03;25.27;;;12.90;99.90;;;;;;5107415;28;20032;-52
2023/04/09 10:30:42;;;;;;;34.15;25.00;;;13.00;99.90;;;;;;5092172;28;20119;-52
2023/04/09 10:33:25;;;;;;;35.33;26.60;;;13.00;99.90;;;;;;5098937;28;20288;-54
2023/04/09 10:35:52;;;;;;;38.38;26.38;;;13.10;99.90;;;;;;5109216;28;20088;-56
2023/04/09 10:38:44;;;;;;;35.70;24.73;;;13.10;99.90;;;;;;5106778;27;20126;-53
2023/04/09 10:41:34;;;;;;;37.95;27.67;;;13.10;99.90;;;;;;5108092;28;20104;-55
2023/04/09 10:44:04;;;;;;;37.47;26.60;;;13.20;99.90;;;;;;5101137;28;20096;-54
2023/04/09 10:46:35;;;;;;;36.83;27.83;;;13.20;99.90;;;;;;5109612;28;20126;-53
2023/04/09 10:49:09;;;;;;;36.40;26.25;;;13.30;99.90;;;;;;5096573;28;20076;-53
2023/04/09 10:51:38;;;;;;;30.85;23.33;;;13.20;99.90;;;;;;5108722;28;20032;-54
2023/04/09 10:54:05;;;;;;;39.08;28.73;;;13.10;99.90;;;;;;5093996;28;20038;-53
2023/04/09 10:56:31;;;;;;;36.70;27.52;;;13.00;99.90;;;;;;5092239;28;20505;-55
2023/04/09 10:58:57;;;;;;;34.38;26.35;;;13.00;99.90;;;;;;5095917;28;20044;-54
2023/04/09 11:01:23;;;;;;;39.43;27.20;;;13.00;99.90;;;;;;5105825;28;20039;-52
2023/04/09 11:04:07;;;;;;;38.70;26.00;;;13.00;99.90;;;;;;5106495;28;20368;-53
2023/04/09 11:06:36;;;;;;;35.63;26.38;;;13.10;99.90;;;;;;5108354;28;20047;-53
2023/04/09 11:09:03;;;;;;;33.30;24.35;;;13.00;99.90;;;;;;5104064;28;20039;-53
2023/04/09 11:11:29;;;;;;;36.75;26.65;;;12.90;99.90;;;;;;5100979;28;20040;-53
2023/04/09 11:14:00;;;;;;;34.70;25.33;;;12.80;99.90;;;;;;5106352;28;20731;-55
2023/04/09 11:16:28;;;;;;;36.95;27.52;;;12.80;99.90;;;;;;5091808;28;20044;-54
2023/04/09 11:18:55;;;;;;;37.25;27.02;;;12.80;99.90;;;;;;5101173;28;20377;-55
2023/04/09 11:21:26;;;;;;;33.40;24.00;;;13.00;99.90;;;;;;5099391;28;20409;-52
2023/04/09 11:23:52;;;;;;;31.52;23.13;;;13.10;99.90;;;;;;5098843;28;20038;-54
2023/04/09 11:26:33;;;;;;;37.50;24.48;;;13.30;99.90;;;;;;5107479;28;20094;-57
2023/04/09 11:29:05;;;;;;;32.50;24.55;;;13.50;99.90;;;;;;5108241;28;20048;-53
2023/04/09 11:31:30;;;;;;;34.67;24.83;;;13.50;99.90;;;;;;5104128;28;20046;-54
2023/04/09 11:33:56;;;;;;;30.67;22.17;;;13.60;99.90;;;;;;5106937;28;20431;-55
2023/04/09 11:36:22;;;;;;;31.43;22.77;;;13.50;99.90;;;;;;5096877;28;20315;-52
2023/04/09 11:38:49;;;;;;;35.15;24.02;;;13.50;99.90;;;;;;5091536;28;20281;-58
2023/04/09 11:41:15;;;;;;;30.77;23.98;;;13.50;99.90;;;;;;5095243;28;20054;-57
2023/04/09 11:43:41;;;;;;;32.25;24.27;;;13.60;99.90;;;;;;5093924;28;20067;-58
2023/04/09 11:46:07;;;;;;;33.70;25.10;;;13.50;99.90;;;;;;5102645;28;20146;-58
2023/04/09 11:48:34;;;;;;;29.55;22.73;;;13.60;99.90;;;;;;5091841;28;20051;-57
2023/04/09 11:51:01;;;;;;;31.50;23.13;;;13.60;99.90;;;;;;5098419;28;20435;-58
2023/04/09 11:53:30;;;;;;;32.00;22.92;;;13.60;99.90;;;;;;5106367;28;20514;-57
2023/04/09 11:55:56;;;;;;;31.00;22.92;;;13.60;99.90;;;;;;5102662;28;20035;-56
2023/04/09 11:58:23;;;;;;;29.48;22.58;;;13.60;99.90;;;;;;5099111;28;20055;-56
2023/04/09 12:00:53;;;;;;;27.48;20.88;;;13.70;99.90;;;;;;5091466;28;20064;-54
2023/04/09 12:03:26;;;;;;;26.92;21.30;;;13.70;99.90;;;;;;5092507;28;20055;-55
2023/04/09 12:05:52;;;;;;;30.30;21.48;;;13.80;99.90;;;;;;5099781;28;20548;-55
2023/04/09 12:08:22;;;;;;;25.63;20.63;;;13.90;99.90;;;;;;5106765;28;20032;-52
2023/04/09 12:10:48;;;;;;;26.00;20.15;;;14.00;99.90;;;;;;5101766;28;20036;-54
2023/04/09 12:13:15;;;;;;;26.77;20.73;;;14.10;99.90;;;;;;5093289;28;20405;-52
2023/04/09 12:15:44;;;;;;;30.15;22.63;;;14.20;99.90;;;;;;5108054;28;20050;-54
2023/04/09 12:18:12;;;;;;;27.08;20.13;;;14.40;99.90;;;;;;5104613;28;20048;-56
2023/04/09 12:20:38;;;;;;;28.63;20.35;;;14.50;99.90;;;;;;5092601;28;20081;-57
2023/04/09 12:23:05;;;;;;;29.00;22.40;;;14.50;99.90;;;;;;5097462;28;20103;-59
2023/04/09 12:25:34;;;;;;;28.50;20.75;;;14.50;99.90;;;;;;5093720;28;20051;-57
2023/04/09 12:28:00;;;;;;;27.50;20.70;;;14.50;99.90;;;;;;5101822;28;20028;-58
2023/04/09 12:30:26;;;;;;;21.27;16.30;;;14.50;99.90;;;;;;5103431;27;20087;-58
2023/04/09 12:32:52;;;;;;;19.60;15.93;;;14.50;99.90;;;;;;5107253;28;20106;-58
2023/04/09 12:35:19;;;;;;;21.63;16.63;;;14.40;99.90;;;;;;5107028;28;20173;-57
2023/04/09 12:37:46;;;;;;;21.73;17.13;;;14.60;99.90;;;;;;5090256;28;20416;-59